Time;durP1;ratioP1;P1;durP2;ratioP2;P2;SDS_P1;SDS_P2;PMS_P1;PMS_P2;Temp;Humidity;BMP_temperature;BMP_pressure;BME280_temperature;BME280_humidity;BME280_pressure;Samples;Min_cycle;Max_cycle;Signal;HPM_P1;HPM_P2
2022/06/15 00:00:31;;;;;;;;;;;;;;;17.47;47.24;100785.19;4973099;28;9872;-76
2022/06/15 00:02:57;;;;;;;;;;;;;;;17.42;47.11;100786.81;4990311;28;6971;-76
2022/06/15 00:05:22;;;;;;;;;;;;;;;17.38;48.03;100793.59;4976729;28;8456;-77
2022/06/15 00:07:48;;;;;;;;;;;;;;;17.34;47.76;100784.88;4977291;28;8390;-78
2022/06/15 00:10:14;;;;;;;;;;;;;;;17.33;48.12;100784.81;4992403;28;8365;-77
2022/06/15 00:12:39;;;;;;;;;;;;;;;17.29;48.12;100781.31;4991572;28;6772;-77
2022/06/15 00:15:07;;;;;;;;;;;;;;;17.24;47.74;100777.69;4997495;28;6811;-77
2022/06/15 00:17:33;;;;;;;;;;;;;;;17.21;48.20;100777.63;4996212;28;6862;-77
2022/06/15 00:19:58;;;;;;;;;;;;;;;17.18;48.02;100773.25;4963402;28;7252;-77
2022/06/15 00:22:24;;;;;;;;;;;;;;;17.19;47.39;100771.50;4993167;28;6823;-77
2022/06/15 00:24:50;;;;;;;;;;;;;;;17.17;47.29;100775.78;4996240;28;7018;-77
2022/06/15 00:27:15;;;;;;;;;;;;;;;17.14;47.58;100774.00;4976561;28;6979;-77
2022/06/15 00:29:41;;;;;;;;;;;;;;;17.11;47.20;100781.66;5009561;28;9081;-77
2022/06/15 00:32:07;;;;;;;;;;;;;;;17.08;47.44;100774.69;4975502;28;7056;-77
2022/06/15 00:34:33;;;;;;;;;;;;;;;17.07;47.56;100777.25;5009675;28;6996;-77
2022/06/15 00:37:01;;;;;;;;;;;;;;;17.03;47.00;100770.22;4995216;28;7243;-77
2022/06/15 00:39:27;;;;;;;;;;;;;;;17.00;47.16;100776.22;4993682;28;6892;-77
2022/06/15 00:41:53;;;;;;;;;;;;;;;16.97;47.50;100762.28;4997143;28;6835;-77
2022/06/15 00:44:19;;;;;;;;;;;;;;;16.91;47.18;100758.66;4996924;28;6961;-77
2022/06/15 00:46:53;;;;;;;;;;;;;;;16.86;47.65;100760.25;5006267;28;7112;-77
2022/06/15 00:49:35;;;;;;;;;;;;;;;16.81;47.73;100756.66;4992222;28;6827;-77
2022/06/15 00:53:07;;;;;;;;;;;;;;;16.76;47.83;100759.13;4967119;28;7879;-77
2022/06/15 00:55:35;;;;;;;;;;;;;;;16.68;47.92;100747.66;4876143;29;8707;-77
2022/06/15 00:58:07;;;;;;;;;;;;;;;16.64;48.19;100753.59;4967023;28;7658;-77
2022/06/15 01:00:33;;;;;;;;;;;;;;;16.59;48.06;100750.00;4975988;28;8380;-77
2022/06/15 01:02:59;;;;;;;;;;;;;;;16.55;48.40;100748.16;4978933;28;6887;-77
2022/06/15 01:05:44;;;;;;;;;;;;;;;16.54;48.29;100752.44;4991174;28;6796;-77
2022/06/15 01:08:22;;;;;;;;;;;;;;;16.50;48.74;100743.72;4993945;28;6984;-77
2022/06/15 01:11:11;;;;;;;;;;;;;;;16.48;48.84;100747.97;4995380;28;7245;-79
2022/06/15 01:14:32;;;;;;;;;;;;;;;16.44;48.66;100740.97;4998664;28;6986;-79
2022/06/15 01:17:07;;;;;;;;;;;;;;;16.38;48.98;100735.59;4997363;28;7240;-79
2022/06/15 01:20:06;;;;;;;;;;;;;;;16.37;49.02;100736.44;4979977;28;6993;-79
2022/06/15 01:22:53;;;;;;;;;;;;;;;16.36;49.01;100737.28;5001946;28;7672;-79
2022/06/15 01:25:44;;;;;;;;;;;;;;;16.35;49.14;100740.69;5000343;28;7344;-79
2022/06/15 01:28:38;;;;;;;;;;;;;;;16.35;49.49;100740.69;4995080;28;8512;-79
2022/06/15 01:31:49;;;;;;;;;;;;;;;16.32;49.17;100735.41;4996018;28;8430;-79
2022/06/15 01:35:03;;;;;;;;;;;;;;;16.30;49.18;100737.06;5002553;28;7188;-79
2022/06/15 01:38:01;;;;;;;;;;;;;;;16.29;49.32;100737.91;4968828;28;7296;-79
2022/06/15 01:40:41;;;;;;;;;;;;;;;16.27;49.63;100740.44;5005359;28;7186;-79
2022/06/15 01:43:18;;;;;;;;;;;;;;;16.28;49.91;100741.31;4984416;28;8429;-79
2022/06/15 01:45:47;;;;;;;;;;;;;;;16.24;49.69;100733.50;4971711;28;8795;-79
2022/06/15 01:48:15;;;;;;;;;;;;;;;16.23;49.59;100736.03;5002723;28;7452;-79
2022/06/15 01:50:51;;;;;;;;;;;;;;;16.19;49.51;100739.34;4978952;28;7835;-79
2022/06/15 01:53:36;;;;;;;;;;;;;;;16.16;49.26;100734.97;4997070;28;6816;-79
2022/06/15 01:56:16;;;;;;;;;;;;;;;16.12;49.28;100730.50;4958743;28;8816;-79
2022/06/15 01:58:48;;;;;;;;;;;;;;;16.10;49.97;100733.06;5000245;28;7200;-79
2022/06/15 02:01:48;;;;;;;;;;;;;;;16.08;49.88;100732.16;5010039;28;7998;-79
2022/06/15 02:04:54;;;;;;;;;;;;;;;16.03;49.92;100727.63;4965124;28;7043;-79
2022/06/15 02:07:45;;;;;;;;;;;;;;;15.97;50.29;100736.09;4994156;28;6821;-79
2022/06/15 02:10:23;;;;;;;;;;;;;;;15.93;50.35;100727.38;4976488;28;7416;-79
2022/06/15 02:13:03;;;;;;;;;;;;;;;15.89;50.11;100730.66;4976230;28;7204;-79
2022/06/15 02:15:30;;;;;;;;;;;;;;;15.84;50.26;100732.22;4993384;28;7837;-79
2022/06/15 02:18:07;;;;;;;;;;;;;;;15.77;51.02;100725.09;4989496;28;7186;-79
2022/06/15 02:20:41;;;;;;;;;;;;;;;15.74;51.08;100732.75;4992603;28;7338;-79
2022/06/15 02:23:12;;;;;;;;;;;;;;;15.71;50.99;100728.38;4996915;28;7128;-79
2022/06/15 02:25:46;;;;;;;;;;;;;;;15.68;51.39;100726.56;4993616;28;7101;-79
2022/06/15 02:28:14;;;;;;;;;;;;;;;15.65;51.94;100718.72;4986663;28;6896;-80
2022/06/15 02:30:42;;;;;;;;;;;;;;;15.64;51.77;100714.34;4987415;28;8315;-80
2022/06/15 02:33:31;;;;;;;;;;;;;;;15.61;51.25;100698.75;4993610;28;6882;-79
2022/06/15 02:36:00;;;;;;;;;;;;;;;15.62;51.29;100716.00;4973900;28;7665;-79
2022/06/15 02:38:27;;;;;;;;;;;;;;;15.62;51.85;100712.56;4976783;28;7799;-79
2022/06/15 02:40:53;;;;;;;;;;;;;;;15.61;51.33;100711.69;4992117;28;7070;-80
2022/06/15 02:43:25;;;;;;;;;;;;;;;15.61;51.84;100710.81;4995075;28;6956;-80
2022/06/15 02:45:54;;;;;;;;;;;;;;;15.60;51.35;100703.91;4993597;28;6828;-80
2022/06/15 02:48:21;;;;;;;;;;;;;;;15.57;51.43;100702.09;4977226;28;8744;-80
2022/06/15 02:51:00;;;;;;;;;;;;;;;15.54;51.79;100713.19;4994080;28;6989;-80
2022/06/15 02:53:30;;;;;;;;;;;;;;;15.50;52.02;100703.59;4995344;28;6800;-80
2022/06/15 02:56:00;;;;;;;;;;;;;;;15.48;51.52;100704.38;4998331;28;8112;-80
2022/06/15 02:58:37;;;;;;;;;;;;;;;15.46;51.28;100709.47;5000451;28;6990;-80
2022/06/15 03:01:04;;;;;;;;;;;;;;;15.45;51.71;100706.84;4989714;28;7137;-80
2022/06/15 03:03:31;;;;;;;;;;;;;;;15.44;52.10;100710.25;4990759;28;6808;-80
2022/06/15 03:05:57;;;;;;;;;;;;;;;15.41;51.81;100709.31;4975088;28;6816;-80
2022/06/15 03:08:23;;;;;;;;;;;;;;;15.38;51.41;100704.06;4992945;28;6995;-80
2022/06/15 03:10:51;;;;;;;;;;;;;;;15.35;52.06;100706.53;4975014;28;6884;-80
2022/06/15 03:13:17;;;;;;;;;;;;;;;15.32;52.13;100710.75;4971218;28;8458;-79
2022/06/15 03:15:42;;;;;;;;;;;;;;;15.30;52.04;100712.38;4993181;28;6803;-79
2022/06/15 03:18:08;;;;;;;;;;;;;;;15.28;51.92;100717.50;5006095;28;6796;-80
2022/06/15 03:20:34;;;;;;;;;;;;;;;15.24;51.97;100708.78;4995878;28;6780;-80
2022/06/15 03:22:59;;;;;;;;;;;;;;;15.23;51.80;100709.59;4979720;28;7722;-80
2022/06/15 03:25:26;;;;;;;;;;;;;;;15.20;52.29;100703.44;4991816;28;8480;-80
2022/06/15 03:27:52;;;;;;;;;;;;;;;15.19;52.23;100704.28;4991219;28;7714;-79
2022/06/15 03:30:18;;;;;;;;;;;;;;;15.18;52.29;100705.13;4985427;28;6824;-79
2022/06/15 03:32:44;;;;;;;;;;;;;;;15.18;51.75;100711.13;4981929;28;7612;-79
2022/06/15 03:35:11;;;;;;;;;;;;;;;15.16;52.24;100715.38;5001264;28;9716;-80
2022/06/15 03:37:40;;;;;;;;;;;;;;;15.17;51.93;100716.25;4973914;28;7248;-80
2022/06/15 03:40:08;;;;;;;;;;;;;;;15.18;52.33;100715.44;4999460;28;7168;-80
2022/06/15 03:42:36;;;;;;;;;;;;;;;15.19;52.75;100719.78;4994253;28;7240;-80
2022/06/15 03:45:03;;;;;;;;;;;;;;;15.19;52.18;100725.78;4994750;28;6796;-80
2022/06/15 03:47:29;;;;;;;;;;;;;;;15.20;52.49;100724.09;4979122;28;6820;-80
2022/06/15 03:49:55;;;;;;;;;;;;;;;15.21;53.00;100723.28;4990406;28;6982;-81
2022/06/15 03:52:26;;;;;;;;;;;;;;;15.22;52.52;100722.44;4978658;28;6903;-80
2022/06/15 03:54:51;;;;;;;;;;;;;;;15.23;52.17;100719.94;4996005;28;8322;-80
2022/06/15 03:57:20;;;;;;;;;;;;;;;15.26;52.68;100722.59;4998324;28;8774;-80
2022/06/15 03:59:47;;;;;;;;;;;;;;;15.30;52.72;100721.00;4978988;28;7173;-80
2022/06/15 04:02:13;;;;;;;;;;;;;;;15.32;53.13;100721.94;4993703;28;7023;-80
2022/06/15 04:04:39;;;;;;;;;;;;;;;15.35;52.95;100722.03;4976714;28;7972;-80
2022/06/15 04:08:34;;;;;;;;;;;;;;;15.39;53.53;100723.91;4994163;28;6891;-79
2022/06/15 04:09:55;;;;;;;;;;;;;;;15.47;53.31;100720.69;4994513;28;7244;-79
2022/06/15 04:12:21;;;;;;;;;;;;;;;15.52;53.04;100720.03;4991771;28;7154;-79
2022/06/15 04:14:47;;;;;;;;;;;;;;;15.60;53.11;100720.25;4983302;28;8712;-79
2022/06/15 04:17:13;;;;;;;;;;;;;;;15.80;53.94;100725.19;4994137;28;6942;-79
2022/06/15 04:19:39;;;;;;;;;;;;;;;16.08;54.92;100724.41;4997398;28;8596;-79
2022/06/15 04:22:05;;;;;;;;;;;;;;;16.47;55.32;100725.53;4994152;28;7772;-80
2022/06/15 04:24:31;;;;;;;;;;;;;;;16.91;55.21;100727.59;4978582;28;7861;-80
2022/06/15 04:26:58;;;;;;;;;;;;;;;17.36;55.34;100727.94;4996391;28;7118;-80
2022/06/15 04:29:25;;;;;;;;;;;;;;;17.84;55.50;100723.88;5004139;28;6969;-80
2022/06/15 04:31:51;;;;;;;;;;;;;;;18.35;55.08;100716.41;5005034;28;7254;-80
2022/06/15 04:34:17;;;;;;;;;;;;;;;18.85;54.56;100717.38;5006118;28;7027;-80
2022/06/15 04:36:44;;;;;;;;;;;;;;;19.35;53.52;100710.50;5018815;28;6855;-80
2022/06/15 04:39:13;;;;;;;;;;;;;;;19.79;52.54;100712.03;5002497;28;7245;-80
2022/06/15 04:41:40;;;;;;;;;;;;;;;20.16;50.93;100714.31;5016552;28;6804;-80
2022/06/15 04:44:11;;;;;;;;;;;;;;;20.49;50.61;100719.09;5003284;28;7263;-80
2022/06/15 04:46:36;;;;;;;;;;;;;;;20.83;50.01;100712.56;4982025;28;7192;-80
2022/06/15 04:49:03;;;;;;;;;;;;;;;21.14;49.27;100712.84;5007758;28;6780;-80
2022/06/15 04:51:29;;;;;;;;;;;;;;;21.45;48.59;100710.50;4991077;28;8575;-80
2022/06/15 04:53:59;;;;;;;;;;;;;;;21.74;47.80;100710.78;4987692;28;6775;-80
2022/06/15 04:56:25;;;;;;;;;;;;;;;22.04;47.05;100714.44;4997757;28;6990;-80
2022/06/15 04:58:52;;;;;;;;;;;;;;;22.28;46.58;100707.56;5005932;28;6788;-80
2022/06/15 05:01:17;;;;;;;;;;;;;;;22.48;45.45;100717.22;5002288;28;7248;-80
2022/06/15 05:03:44;;;;;;;;;;;;;;;22.63;44.87;100715.56;5007909;28;6863;-80
2022/06/15 05:06:38;;;;;;;;;;;;;;;22.76;45.05;100722.56;4987248;28;7637;-78
2022/06/15 05:09:13;;;;;;;;;;;;;;;22.91;44.26;100724.34;4997710;28;7035;-78
2022/06/15 05:11:38;;;;;;;;;;;;;;;23.01;43.87;100720.00;4994770;28;6895;-78
2022/06/15 05:14:04;;;;;;;;;;;;;;;23.12;43.17;100718.28;4980571;28;7383;-78
2022/06/15 05:16:30;;;;;;;;;;;;;;;23.23;42.90;100720.91;4989166;28;6949;-78
2022/06/15 05:18:55;;;;;;;;;;;;;;;23.30;42.70;100720.06;4990718;28;6784;-78
2022/06/15 05:21:21;;;;;;;;;;;;;;;23.39;42.83;100726.16;5003259;28;6822;-77
2022/06/15 05:23:47;;;;;;;;;;;;;;;23.44;41.68;100717.44;5004277;28;8693;-77
2022/06/15 05:26:13;;;;;;;;;;;;;;;23.52;41.53;100716.56;5005076;28;6791;-77
2022/06/15 05:28:45;;;;;;;;;;;;;;;23.62;41.12;100715.69;4978587;28;6928;-77
2022/06/15 05:31:22;;;;;;;;;;;;;;;23.77;40.72;100720.03;4999445;28;7756;-77
2022/06/15 05:33:53;;;;;;;;;;;;;;;23.91;40.53;100719.16;4999598;28;7210;-78
2022/06/15 05:36:26;;;;;;;;;;;;;;;24.06;40.26;100720.88;4991668;28;7199;-77
2022/06/15 05:38:52;;;;;;;;;;;;;;;24.13;39.99;100714.72;4994468;28;7306;-77
2022/06/15 05:41:18;;;;;;;;;;;;;;;24.16;39.51;100714.75;4979286;28;8582;-77
2022/06/15 05:43:45;;;;;;;;;;;;;;;24.20;39.75;100720.84;4973749;28;7137;-77
2022/06/15 05:46:27;;;;;;;;;;;;;;;24.26;39.56;100720.78;4990491;28;6800;-77
2022/06/15 05:48:54;;;;;;;;;;;;;;;24.33;39.66;100719.03;4992921;28;7052;-77
2022/06/15 05:51:20;;;;;;;;;;;;;;;24.41;39.96;100715.50;4991189;28;6970;-77
2022/06/15 05:53:46;;;;;;;;;;;;;;;24.62;40.45;100720.63;4964192;28;6816;-77
2022/06/15 05:56:12;;;;;;;;;;;;;;;24.79;40.03;100721.44;4980809;28;6875;-77
2022/06/15 05:58:37;;;;;;;;;;;;;;;24.92;39.67;100714.38;4993147;28;8489;-78
2022/06/15 06:01:31;;;;;;;;;;;;;;;24.96;38.74;100718.75;5009963;28;6808;-77
2022/06/15 06:03:57;;;;;;;;;;;;;;;24.84;38.59;100715.31;4991010;28;7247;-77
2022/06/15 06:06:23;;;;;;;;;;;;;;;24.63;38.62;100725.03;4993857;28;7034;-77
2022/06/15 06:08:49;;;;;;;;;;;;;;;24.37;38.08;100718.16;4982502;28;7650;-78
2022/06/15 06:11:16;;;;;;;;;;;;;;;24.08;38.43;100724.38;4994692;28;8385;-78
2022/06/15 06:13:42;;;;;;;;;;;;;;;23.78;38.27;100718.28;5002433;28;7172;-77
2022/06/15 06:16:09;;;;;;;;;;;;;;;23.53;39.42;100713.06;4973507;28;7124;-77
2022/06/15 06:18:35;;;;;;;;;;;;;;;23.33;39.41;100711.34;4993622;28;6942;-78
2022/06/15 06:21:01;;;;;;;;;;;;;;;23.15;39.79;100713.03;4995868;28;7150;-77
2022/06/15 06:23:27;;;;;;;;;;;;;;;22.99;40.57;100713.91;4977269;28;6796;-77
2022/06/15 06:25:53;;;;;;;;;;;;;;;22.88;40.61;100725.19;4986219;28;6899;-78
2022/06/15 06:28:41;;;;;;;;;;;;;;;22.77;40.85;100720.84;4993801;28;7931;-77
2022/06/15 06:31:09;;;;;;;;;;;;;;;22.67;41.33;100730.38;4997763;28;6820;-77
2022/06/15 06:33:37;;;;;;;;;;;;;;;22.58;41.33;100737.31;4973005;28;6812;-77
2022/06/15 06:36:18;;;;;;;;;;;;;;;22.53;41.83;100743.38;4993303;28;7871;-77
2022/06/15 06:38:45;;;;;;;;;;;;;;;22.51;41.53;100743.41;4985906;28;7179;-77
2022/06/15 06:41:20;;;;;;;;;;;;;;;22.48;41.70;100732.88;4989116;28;7231;-77
2022/06/15 06:43:45;;;;;;;;;;;;;;;22.49;41.84;100737.28;4975240;28;8675;-77
2022/06/15 06:46:11;;;;;;;;;;;;;;;22.48;41.88;100739.00;4992680;28;6968;-77
2022/06/15 06:48:38;;;;;;;;;;;;;;;22.48;41.86;100739.00;4999364;28;8022;-77
2022/06/15 06:51:04;;;;;;;;;;;;;;;22.50;42.48;100744.22;5004439;28;7019;-77
2022/06/15 06:53:30;;;;;;;;;;;;;;;22.55;42.76;100739.91;4968131;28;8428;-77
2022/06/15 06:56:05;;;;;;;;;;;;;;;22.67;42.73;100739.09;4978829;28;7306;-77
2022/06/15 06:58:31;;;;;;;;;;;;;;;22.88;42.84;100743.47;4997188;28;7015;-77
2022/06/15 07:00:56;;;;;;;;;;;;;;;23.19;43.02;100733.97;4999790;28;6808;-77
2022/06/15 07:03:22;;;;;;;;;;;;;;;23.60;43.06;100740.09;4985749;28;6910;-77
2022/06/15 07:05:49;;;;;;;;;;;;;;;24.04;42.38;100741.81;5006680;28;6934;-77
2022/06/15 07:08:15;;;;;;;;;;;;;;;24.52;42.31;100746.88;5004767;28;7056;-77
2022/06/15 07:10:42;;;;;;;;;;;;;;;24.99;41.69;100749.28;5002529;28;7125;-77
2022/06/15 07:13:08;;;;;;;;;;;;;;;25.41;40.40;100730.63;5004449;28;7370;-78
2022/06/15 07:15:36;;;;;;;;;;;;;;;25.84;39.94;100745.13;5002723;28;6946;-79
2022/06/15 07:18:03;;;;;;;;;;;;;;;26.21;38.94;100741.25;4986716;28;7201;-78
2022/06/15 07:20:31;;;;;;;;;;;;;;;26.52;38.63;100737.38;5004484;28;7021;-78
2022/06/15 07:22:58;;;;;;;;;;;;;;;26.88;38.49;100743.06;4981433;28;6996;-78
2022/06/15 07:25:24;;;;;;;;;;;;;;;27.27;37.91;100742.47;4984398;28;6800;-77
2022/06/15 07:27:51;;;;;;;;;;;;;;;27.63;37.12;100734.88;5017571;28;7035;-77
2022/06/15 07:30:22;;;;;;;;;;;;;;;27.93;36.86;100744.88;5006399;28;6792;-77
2022/06/15 07:32:48;;;;;;;;;;;;;;;28.21;36.80;100737.31;5003131;28;6981;-77
2022/06/15 07:35:28;;;;;;;;;;;;;;;28.48;36.47;100745.56;5012268;28;7831;-77
2022/06/15 07:37:54;;;;;;;;;;;;;;;28.73;36.04;100744.16;5006953;28;7294;-77
2022/06/15 07:40:24;;;;;;;;;;;;;;;28.92;35.75;100737.56;5004904;28;6879;-77
2022/06/15 07:42:53;;;;;;;;;;;;;;;29.14;35.19;100734.41;5003895;28;6796;-77
2022/06/15 07:45:21;;;;;;;;;;;;;;;29.39;35.09;100731.19;4981410;28;7671;-77
2022/06/15 07:50:32;;;;;;;;;;;;;;;29.77;33.12;100721.41;4989823;28;6884;-77
2022/06/15 07:52:57;;;;;;;;;;;;;;;30.00;32.89;100724.34;4985902;28;7049;-77
2022/06/15 07:55:30;;;;;;;;;;;;;;;30.15;32.10;100723.06;5007150;28;6838;-77
2022/06/15 07:57:56;;;;;;;;;;;;;;;30.22;32.15;100729.88;5023724;28;7267;-77
2022/06/15 08:00:24;;;;;;;;;;;;;;;30.29;31.90;100725.28;5000612;28;6792;-77
2022/06/15 08:02:51;;;;;;;;;;;;;;;30.38;31.95;100718.84;5006258;28;6811;-77
2022/06/15 08:05:18;;;;;;;;;;;;;;;30.54;31.99;100722.78;5004184;28;6872;-77
2022/06/15 08:07:47;;;;;;;;;;;;;;;30.71;31.24;100724.91;5011772;28;6990;-77
2022/06/15 08:10:18;;;;;;;;;;;;;;;30.83;31.45;100728.97;5007340;28;6804;-77
2022/06/15 08:12:45;;;;;;;;;;;;;;;30.98;30.84;100729.38;5004064;28;7098;-76
2022/06/15 08:15:12;;;;;;;;;;;;;;;31.07;30.57;100728.22;5006307;28;6796;-77
2022/06/15 08:17:46;;;;;;;;;;;;;;;31.16;30.15;100734.06;5015929;28;6811;-76
2022/06/15 08:20:29;;;;;;;;;;;;;;;31.35;30.24;100732.63;4998994;28;6815;-76
2022/06/15 08:23:01;;;;;;;;;;;;;;;31.50;30.02;100729.44;4994221;28;6843;-76
2022/06/15 08:25:33;;;;;;;;;;;;;;;31.61;30.06;100722.91;5001987;28;7000;-77
2022/06/15 08:28:00;;;;;;;;;;;;;;;31.67;30.26;100733.28;4983264;28;6895;-77
2022/06/15 08:30:27;;;;;;;;;;;;;;;31.83;30.04;100734.50;4978999;28;6807;-77
2022/06/15 08:32:54;;;;;;;;;;;;;;;32.03;29.26;100730.28;4999612;28;6912;-77
2022/06/15 08:35:20;;;;;;;;;;;;;;;32.14;29.07;100732.50;4985568;28;7066;-77
2022/06/15 08:37:46;;;;;;;;;;;;;;;32.14;28.84;100730.72;4986664;28;6792;-77
2022/06/15 08:40:13;;;;;;;;;;;;;;;32.13;28.37;100731.66;4977423;28;6975;-77
2022/06/15 08:43:01;;;;;;;;;;;;;;;32.14;28.80;100729.84;4967738;28;7076;-77
2022/06/15 08:45:43;;;;;;;;;;;;;;;32.22;28.34;100733.09;4999860;28;7002;-77
2022/06/15 08:48:54;;;;;;;;;;;;;;;32.38;28.20;100730.75;4978266;28;6808;-77
2022/06/15 08:51:36;;;;;;;;;;;;;;;32.58;28.15;100734.41;4934848;28;6836;-77
2022/06/15 08:54:30;;;;;;;;;;;;;;;32.80;27.56;100741.53;4979398;28;6839;-77
2022/06/15 08:57:19;;;;;;;;;;;;;;;33.10;27.69;100734.13;4976160;28;6900;-77
2022/06/15 08:59:57;;;;;;;;;;;;;;;33.60;27.48;100731.19;4980280;28;7453;-77
2022/06/15 09:02:43;;;;;;;;;;;;;;;34.07;26.37;100722.03;4998416;28;6895;-77
2022/06/15 09:05:14;;;;;;;;;;;;;;;34.38;26.05;100727.75;4977369;28;8844;-77
2022/06/15 09:08:00;;;;;;;;;;;;;;;34.59;25.48;100726.75;4990537;28;7202;-77
2022/06/15 09:11:11;;;;;;;;;;;;;;;34.72;26.06;100721.69;4997895;28;7309;-77
2022/06/15 09:14:00;;;;;;;;;;;;;;;34.81;25.14;100723.03;4987541;28;8265;-77
2022/06/15 09:16:37;;;;;;;;;;;;;;;34.91;24.85;100723.44;4983433;28;6868;-77
2022/06/15 09:19:39;;;;;;;;;;;;;;;35.11;25.01;100721.63;5001775;28;6883;-77
2022/06/15 09:22:16;;;;;;;;;;;;;;;35.25;24.67;100727.13;4996153;28;6903;-77
2022/06/15 09:25:13;;;;;;;;;;;;;;;35.36;24.71;100715.06;4996192;28;6891;-77
2022/06/15 09:27:59;;;;;;;;;;;;;;;35.59;24.86;100711.22;4992282;28;7181;-77
2022/06/15 09:30:33;;;;;;;;;;;;;;;35.99;24.69;100708.19;4990447;28;6986;-77
2022/06/15 09:33:20;;;;;;;;;;;;;;;36.33;23.49;100714.38;5002345;28;6811;-77
2022/06/15 09:36:02;;;;;;;;;;;;;;;36.34;23.66;100710.75;4993815;28;7939;-77
2022/06/15 09:38:28;;;;;;;;;;;;;;;36.23;23.24;100711.34;4995078;28;6816;-77
2022/06/15 09:41:34;;;;;;;;;;;;;;;36.23;23.71;100710.50;4994154;28;6792;-77
2022/06/15 09:44:32;;;;;;;;;;;;;;;36.32;23.19;100703.78;4963942;28;7012;-77
2022/06/15 09:47:06;;;;;;;;;;;;;;;36.50;23.57;100693.84;4999914;28;6796;-77
2022/06/15 09:50:11;;;;;;;;;;;;;;;36.53;22.97;100701.72;4989305;28;6977;-77
2022/06/15 09:52:59;;;;;;;;;;;;;;;36.50;23.09;100693.84;4999646;28;6823;-77
2022/06/15 09:56:04;;;;;;;;;;;;;;;36.49;22.65;100693.00;4996335;28;6883;-77
2022/06/15 09:59:02;;;;;;;;;;;;;;;36.69;23.15;100696.38;4905878;28;6792;-77
2022/06/15 10:01:36;;;;;;;;;;;;;;;37.02;22.87;100692.66;4991730;28;6816;-77
2022/06/15 10:04:05;;;;;;;;;;;;;;;37.44;22.73;100686.69;4984817;28;7287;-77
2022/06/15 10:07:03;;;;;;;;;;;;;;;37.72;22.17;100685.00;4999869;28;6803;-77
2022/06/15 10:09:35;;;;;;;;;;;;;;;37.82;21.58;100687.94;4994742;28;8777;-77
2022/06/15 10:15:54;;;;;;;;;;;;;;;37.46;21.74;100696.31;4998148;28;8527;-78
2022/06/15 10:18:53;;;;;;;;;;;;;;;37.26;21.41;100708.22;4990309;28;7219;-78
2022/06/15 10:21:34;;;;;;;;;;;;;;;37.50;22.06;100688.97;4994135;28;7090;-78
2022/06/15 10:24:15;;;;;;;;;;;;;;;38.03;21.31;100693.78;4983286;28;7270;-78
2022/06/15 10:26:47;;;;;;;;;;;;;;;38.52;21.20;100687.09;5002288;28;6803;-78
2022/06/15 10:29:15;;;;;;;;;;;;;;;38.76;20.80;100691.78;5001905;28;6827;-77
2022/06/15 10:32:14;;;;;;;;;;;;;;;38.81;20.49;100688.78;5002726;28;6819;-77
2022/06/15 10:34:46;;;;;;;;;;;;;;;38.84;20.24;100685.91;4987105;28;7010;-77
2022/06/15 10:37:43;;;;;;;;;;;;;;;38.68;20.25;100686.94;5003255;28;6796;-77
2022/06/15 10:40:20;;;;;;;;;;;;;;;38.55;20.21;100684.22;5003950;28;7294;-77
2022/06/15 10:43:14;;;;;;;;;;;;;;;38.48;19.91;100685.56;5018812;28;7844;-78
2022/06/15 10:45:58;;;;;;;;;;;;;;;38.23;20.06;100680.94;5002953;28;7027;-78
2022/06/15 10:48:44;;;;;;;;;;;;;;;38.21;20.25;100678.38;5004444;28;6836;-78
2022/06/15 10:51:29;;;;;;;;;;;;;;;38.37;20.52;100680.06;5000843;28;8074;-77
2022/06/15 10:54:29;;;;;;;;;;;;;;;38.36;20.51;100673.81;5003545;28;6898;-77
2022/06/15 11:03:25;;;;;;;;;;;;;;;38.29;20.41;100673.38;5005427;28;6887;-77
2022/06/15 11:05:58;;;;;;;;;;;;;;;38.30;20.17;100667.06;4994342;28;6796;-77
2022/06/15 11:08:29;;;;;;;;;;;;;;;38.42;20.16;100661.84;4985335;28;7225;-77
2022/06/15 11:11:26;;;;;;;;;;;;;;;38.60;20.31;100659.81;4980597;28;7067;-77
2022/06/15 11:14:03;;;;;;;;;;;;;;;38.86;20.24;100660.75;5004258;28;7383;-77
2022/06/15 11:19:27;;;;;;;;;;;;;;;38.84;19.58;100667.16;5004711;28;6849;-77
2022/06/15 11:22:01;;;;;;;;;;;;;;;38.92;19.45;100654.09;4999431;28;6875;-77
2022/06/15 11:24:54;;;;;;;;;;;;;;;39.07;19.28;100646.88;5002361;28;7050;-78
2022/06/15 11:27:48;;;;;;;;;;;;;;;39.27;19.28;100648.16;4998269;28;6820;-77
2022/06/15 11:30:34;;;;;;;;;;;;;;;39.41;18.96;100655.28;4994262;28;6824;-77
2022/06/15 11:33:26;;;;;;;;;;;;;;;39.69;18.94;100650.59;5012822;28;6820;-77
2022/06/15 11:36:43;;;;;;;;;;;;;;;40.11;18.60;100654.81;4990587;28;6820;-77
2022/06/15 11:39:26;;;;;;;;;;;;;;;40.53;18.25;100655.28;4950402;28;6975;-77
2022/06/15 11:41:57;;;;;;;;;;;;;;;40.73;17.93;100642.19;4974426;28;6800;-77
2022/06/15 11:44:33;;;;;;;;;;;;;;;40.84;17.72;100643.22;4973056;28;9004;-77
2022/06/15 11:47:27;;;;;;;;;;;;;;;40.64;17.90;100653.63;4994741;28;7057;-77
2022/06/15 11:50:26;;;;;;;;;;;;;;;40.45;17.92;100638.91;4999956;28;8552;-77
2022/06/15 11:53:24;;;;;;;;;;;;;;;40.30;17.98;100640.88;4973846;28;6828;-77
2022/06/15 11:56:23;;;;;;;;;;;;;;;40.10;18.07;100642.38;5019477;28;6836;-77
2022/06/15 11:58:52;;;;;;;;;;;;;;;40.06;18.39;100639.06;4974512;28;7018;-77
2022/06/15 12:01:41;;;;;;;;;;;;;;;40.01;18.25;100640.38;5003020;28;7061;-78
2022/06/15 12:04:54;;;;;;;;;;;;;;;39.52;18.41;100642.94;4999147;28;7036;-78
2022/06/15 12:08:05;;;;;;;;;;;;;;;39.16;18.47;100632.84;4999815;28;7183;-78
2022/06/15 12:10:50;;;;;;;;;;;;;;;38.94;18.51;100641.47;4956597;28;7449;-78
2022/06/15 12:13:49;;;;;;;;;;;;;;;38.98;18.86;100626.06;4995825;28;7202;-78
2022/06/15 12:16:29;;;;;;;;;;;;;;;39.32;18.68;100631.75;4997717;28;7136;-78
2022/06/15 12:19:16;;;;;;;;;;;;;;;39.57;18.24;100624.66;4987927;28;6994;-78
2022/06/15 12:22:10;;;;;;;;;;;;;;;39.65;18.32;100616.94;4984628;28;7306;-78
2022/06/15 12:25:14;;;;;;;;;;;;;;;39.59;18.30;100614.69;4990281;28;7569;-78
2022/06/15 12:28:09;;;;;;;;;;;;;;;39.62;18.24;100616.28;4998702;28;7547;-78
2022/06/15 12:31:05;;;;;;;;;;;;;;;39.81;18.18;100618.53;5001885;28;6966;-78
2022/06/15 12:33:39;;;;;;;;;;;;;;;40.09;17.90;100627.25;4999316;28;7948;-77
2022/06/15 12:36:42;;;;;;;;;;;;;;;40.19;17.44;100622.91;4996203;28;6796;-78
2022/06/15 12:39:48;;;;;;;;;;;;;;;39.97;17.83;100629.84;4991992;28;7009;-78
2022/06/15 12:42:17;;;;;;;;;;;;;;;39.67;17.75;100617.69;4984418;28;6816;-78
2022/06/15 12:45:05;;;;;;;;;;;;;;;39.48;17.60;100617.28;5001189;28;6882;-78
2022/06/15 12:47:34;;;;;;;;;;;;;;;39.40;17.78;100625.84;4960257;28;8674;-78
2022/06/15 12:50:24;;;;;;;;;;;;;;;39.30;17.80;100631.00;4994017;28;6955;-78
2022/06/15 12:53:27;;;;;;;;;;;;;;;39.15;17.77;100622.22;5006495;28;6812;-78
2022/06/15 12:56:36;;;;;;;;;;;;;;;39.20;18.19;100616.53;4994985;28;6908;-78
2022/06/15 12:59:32;;;;;;;;;;;;;;;39.25;18.28;100611.72;4977292;28;6833;-78
2022/06/15 13:02:38;;;;;;;;;;;;;;;39.04;17.65;100620.28;4982126;28;7015;-78
2022/06/15 13:05:09;;;;;;;;;;;;;;;38.70;17.79;100619.88;4986066;28;7652;-78
2022/06/15 13:07:39;;;;;;;;;;;;;;;38.61;18.18;100618.72;4993518;28;8874;-78
2022/06/15 13:10:07;;;;;;;;;;;;;;;38.81;18.19;100619.16;4992745;28;6925;-78
2022/06/15 13:12:46;;;;;;;;;;;;;;;39.06;18.07;100621.03;5010460;28;6950;-78
2022/06/15 13:15:49;;;;;;;;;;;;;;;39.12;17.81;100623.31;4992327;28;6800;-77
2022/06/15 13:18:14;;;;;;;;;;;;;;;39.10;17.86;100617.16;5015323;28;6832;-77
2022/06/15 13:20:46;;;;;;;;;;;;;;;39.06;17.88;100618.38;4993260;28;6800;-77
2022/06/15 13:23:22;;;;;;;;;;;;;;;39.16;17.69;100622.09;5018775;28;6799;-77
2022/06/15 13:26:16;;;;;;;;;;;;;;;39.25;17.73;100623.28;4989855;28;7169;-77
2022/06/15 13:29:01;;;;;;;;;;;;;;;39.38;17.76;100620.59;4979085;28;7003;-76
2022/06/15 13:31:50;;;;;;;;;;;;;;;39.64;17.89;100614.34;5005539;28;6807;-78
2022/06/15 13:34:34;;;;;;;;;;;;;;;39.92;18.29;100621.31;4999437;28;6832;-78
2022/06/15 13:37:14;;;;;;;;;;;;;;;40.29;18.20;100612.34;5006512;28;6803;-78
2022/06/15 13:39:44;;;;;;;;;;;;;;;40.65;17.79;100618.59;5022412;28;6795;-78
2022/06/15 13:42:40;;;;;;;;;;;;;;;40.92;17.38;100616.63;4997909;28;8939;-78
2022/06/15 13:45:33;;;;;;;;;;;;;;;40.90;17.27;100621.25;5023701;28;9453;-78
2022/06/15 13:48:32;;;;;;;;;;;;;;;40.78;17.01;100618.56;4996210;28;7014;-78
2022/06/15 13:51:14;;;;;;;;;;;;;;;40.62;17.04;100620.66;5003181;28;7565;-78